Accueil
METAR-TAF:

METAR-TAF

Aéroports :

Aéroport de Burgos

Burgos, Espagne

latitude: 42-22N, longitude: 003-38W, altitude: 894 m

Observation

Le bulletin a été fait il y a 31 minutes, à 20:00 UTC
Vent 13 kt de nord/nord-est
Température 13°C
Humidité 88%
Pression 1021 hPa
Visibilité 10 km ou plus

METAR: LEBG 192000Z AUTO 02013KT 9999 BKN014/// 13/11 Q1021

Heure: 22:31 (20:31 UTC)

Prévision

Le bulletin a été fait il y a 3 heures et 31 minutes, à 17:00 UTC
Prévision valable du 19 à 18 UTC au 20 à 03 UTC
Vent 12 kt de nord/nord-est
Visibilité 10 km ou plus
Nuages fragmentés à une hauteur de 1500 ft
Nuages fragmentés à une hauteur de 2500 ft
Probabilité 40% :
Temporairement
du 19 à 18 UTC au 20 à 03 UTC
Visibilité: 2000 m
Nuages fragmentés à une hauteur de 900 ft
bruine, brume

TAF: LEBG 191700Z 1918/2003 03012KT 9999 BKN015 BKN025 PROB40 TEMPO 1918/2003 2000 DZ BR BKN009

Observations et prévisions météorologiques de plus de 4000 aéroports (messages METAR et TAF).

Les stations disponibles sont représentées par des disques jaunes et rouges sur la carte.

Passer la souris dessus pour voir le nom de la station.

Cliquer dessus pour voir les observations et prévisions météorologiques.

Pour changer de carte: cliquez sur les boutons verts avec une croix noire pour zoomer, sur le bouton vert avec un tiret pour effectuer un zoom arrière, ou sur les flèches vertes pour les cartes adjacentes.


METAR-TAF: